createdAt,value
2022-08-24T00:03:47.749Z,0
2022-08-24T00:09:22.647Z,0
2022-08-24T00:14:57.760Z,2
2022-08-24T00:20:32.434Z,2
2022-08-24T00:26:08.578Z,2
2022-08-24T00:31:45.029Z,2
2022-08-24T00:37:22.725Z,0
2022-08-24T00:43:19.307Z,4
2022-08-24T00:48:53.071Z,2
2022-08-24T00:54:28.598Z,2
2022-08-24T01:00:04.354Z,0
2022-08-24T01:05:43.128Z,0
2022-08-24T01:11:23.085Z,2
2022-08-24T01:16:58.203Z,0
2022-08-24T01:22:33.895Z,2
2022-08-24T01:28:08.746Z,4
2022-08-24T01:33:43.326Z,2
2022-08-24T01:39:18.244Z,2
2022-08-24T01:45:14.835Z,4
2022-08-24T01:50:47.617Z,4
2022-08-24T01:56:22.403Z,4
2022-08-24T02:02:00.827Z,2
2022-08-24T02:07:35.755Z,4
2022-08-24T02:13:10.526Z,4
2022-08-24T02:18:45.463Z,2
2022-08-24T02:24:20.169Z,4
2022-08-24T02:29:54.939Z,6
2022-08-24T02:35:30.033Z,30
2022-08-24T02:41:04.571Z,8
2022-08-24T02:46:40.280Z,0
2022-08-24T02:52:15.234Z,6
2022-08-24T02:57:50.135Z,4
2022-08-24T03:03:29.703Z,0
2022-08-24T03:09:04.625Z,2
2022-08-24T03:14:39.440Z,2
2022-08-24T03:20:14.248Z,0
2022-08-24T03:26:09.445Z,4
2022-08-24T03:31:44.535Z,6
2022-08-24T03:37:19.191Z,4
2022-08-24T03:43:16.589Z,6
2022-08-24T03:48:49.279Z,4
2022-08-24T03:54:23.954Z,4
2022-08-24T04:00:01.872Z,6
2022-08-24T04:05:40.182Z,6
2022-08-24T04:11:15.767Z,2
2022-08-24T04:16:59.299Z,4
2022-08-24T04:22:34.684Z,10
2022-08-24T04:28:17.110Z,0
2022-08-24T04:33:55.050Z,0
2022-08-24T04:39:30.840Z,4
2022-08-24T04:45:28.351Z,6
2022-08-24T04:51:01.177Z,4
2022-08-24T04:56:35.709Z,0
2022-08-24T05:02:11.110Z,0
2022-08-24T05:07:46.633Z,4
2022-08-24T05:13:22.891Z,4
2022-08-24T05:18:57.561Z,4
2022-08-24T05:24:32.246Z,8
2022-08-24T05:30:13.976Z,2
2022-08-24T05:35:48.759Z,2
2022-08-24T05:41:23.742Z,2
2022-08-24T05:46:59.443Z,6
2022-08-24T05:52:35.752Z,3
2022-08-24T05:58:31.976Z,2
2022-08-24T06:04:07.088Z,10
2022-08-24T06:09:42.822Z,4
2022-08-24T06:15:17.654Z,0
2022-08-24T06:20:58.531Z,6
2022-08-24T06:26:33.464Z,4
2022-08-24T06:32:09.246Z,8
2022-08-24T06:37:46.764Z,6
2022-08-24T06:43:43.645Z,7
2022-08-24T06:49:16.258Z,4
2022-08-24T06:54:51.176Z,2
2022-08-24T07:00:26.123Z,2
2022-08-24T07:06:01.135Z,8
2022-08-24T07:11:36.245Z,0
2022-08-24T07:17:17.758Z,4
2022-08-24T07:22:52.555Z,2
2022-08-24T07:28:33.124Z,8
2022-08-24T07:34:08.095Z,2
2022-08-24T07:39:43.725Z,4
2022-08-24T07:45:18.912Z,4
2022-08-24T07:50:53.595Z,4
2022-08-24T07:56:36.219Z,4
2022-08-24T08:02:14.547Z,4
2022-08-24T08:07:53.252Z,2
2022-08-24T08:13:28.544Z,0
2022-08-24T08:19:12.876Z,4
2022-08-24T08:24:47.782Z,8
2022-08-24T08:30:23.575Z,2
2022-08-24T08:35:58.633Z,8
2022-08-24T08:41:37.824Z,0
2022-08-24T08:47:15.497Z,0
2022-08-24T08:52:50.267Z,2
2022-08-24T08:58:30.891Z,0
2022-08-24T09:04:06.185Z,2
2022-08-24T09:09:41.667Z,6
2022-08-24T09:15:16.653Z,2
2022-08-24T09:20:51.754Z,4
2022-08-24T09:26:26.605Z,2
2022-08-24T09:32:01.691Z,4
2022-08-24T09:37:44.289Z,0
2022-08-24T09:43:41.165Z,4
2022-08-24T09:49:15.192Z,0
2022-08-24T09:54:58.489Z,4
2022-08-24T10:01:01.268Z,0
2022-08-24T10:06:36.491Z,2
2022-08-24T10:12:12.541Z,0
2022-08-24T10:17:50.863Z,2
2022-08-24T10:23:25.515Z,2
2022-08-24T10:29:00.433Z,8
2022-08-24T10:34:35.031Z,2
2022-08-24T10:40:10.757Z,2
2022-08-24T10:45:52.108Z,0
2022-08-24T10:51:27.334Z,0
2022-08-24T10:57:02.244Z,0
2022-08-24T11:02:38.188Z,2
2022-08-24T11:08:13.315Z,0
2022-08-24T11:13:49.254Z,2
2022-08-24T11:19:23.891Z,2
2022-08-24T11:24:58.694Z,4
2022-08-24T11:30:34.687Z,4
2022-08-24T11:36:22.211Z,4
2022-08-24T11:42:30.519Z,2
2022-08-24T11:48:06.518Z,2
2022-08-24T11:53:50.543Z,4
2022-08-24T11:59:25.483Z,2
2022-08-24T12:05:00.343Z,0
2022-08-24T12:10:46.618Z,2
2022-08-24T12:16:22.262Z,0
2022-08-24T12:21:58.381Z,2
2022-08-24T12:27:33.329Z,2
2022-08-24T12:33:08.205Z,0
2022-08-24T12:38:44.702Z,0
2022-08-24T12:44:20.611Z,0
2022-08-24T12:49:55.299Z,0
2022-08-24T12:55:35.403Z,0
2022-08-24T13:01:11.864Z,0
2022-08-24T13:06:47.498Z,0
2022-08-24T13:12:32.518Z,2
2022-08-24T13:18:11.692Z,4
2022-08-24T13:23:47.841Z,0
2022-08-24T13:29:22.858Z,0
2022-08-24T13:34:57.929Z,0
2022-08-24T13:40:33.645Z,0
2022-08-24T13:46:14.619Z,0
2022-08-24T13:51:51.974Z,0
2022-08-24T13:57:28.049Z,0
2022-08-24T14:03:05.652Z,2
2022-08-24T14:08:40.353Z,0
2022-08-24T14:14:23.758Z,0
2022-08-24T14:19:59.313Z,0
2022-08-24T14:25:34.052Z,0
2022-08-24T14:31:09.427Z,4
2022-08-24T14:36:44.675Z,0
2022-08-24T14:42:41.235Z,0
2022-08-24T14:48:15.351Z,0
2022-08-24T14:53:51.287Z,2
2022-08-24T14:59:26.123Z,0
2022-08-24T15:05:01.824Z,0
2022-08-24T15:10:38.040Z,6
2022-08-24T15:16:13.676Z,0
2022-08-24T15:21:48.956Z,2
2022-08-24T15:27:24.190Z,0
2022-08-24T15:32:58.670Z,0
2022-08-24T15:38:33.526Z,0
2022-08-24T15:44:30.401Z,2
2022-08-24T15:50:03.720Z,0
2022-08-24T15:55:39.222Z,0
2022-08-24T16:01:15.691Z,0
2022-08-24T16:06:52.949Z,4
2022-08-24T16:12:33.406Z,0
2022-08-24T16:18:10.063Z,0
2022-08-24T16:23:45.262Z,0
2022-08-24T16:29:30.794Z,0
2022-08-24T16:35:28.717Z,0
2022-08-24T16:41:10.139Z,0
2022-08-24T16:46:50.316Z,2
2022-08-24T16:52:26.256Z,0
2022-08-24T16:58:03.013Z,2
2022-08-24T17:03:38.841Z,0
2022-08-24T17:09:14.178Z,2
2022-08-24T17:14:49.030Z,2
2022-08-24T17:20:23.884Z,0
2022-08-24T17:25:58.741Z,2
2022-08-24T17:31:34.807Z,2
2022-08-24T17:37:09.959Z,0
2022-08-24T17:42:52.683Z,0
2022-08-24T17:48:27.700Z,0
2022-08-24T17:54:02.465Z,2
2022-08-24T17:59:37.188Z,2
2022-08-24T18:05:12.846Z,0
2022-08-24T18:10:48.788Z,2
2022-08-24T18:16:24.392Z,0
2022-08-24T18:21:59.376Z,2
2022-08-24T18:27:38.555Z,4
2022-08-24T18:33:15.094Z,2
2022-08-24T18:38:56.775Z,2
2022-08-24T18:44:53.313Z,2
2022-08-24T18:50:26.998Z,0
2022-08-24T18:56:13.214Z,0
2022-08-24T19:01:51.260Z,1
2022-08-24T19:07:34.506Z,2
2022-08-24T19:13:12.269Z,0
2022-08-24T19:18:49.444Z,0
2022-08-24T19:24:24.469Z,6
2022-08-24T19:29:59.560Z,2
2022-08-24T19:35:35.248Z,2
2022-08-24T19:41:17.976Z,2
2022-08-24T19:46:57.360Z,0
2022-08-24T19:52:32.669Z,2
2022-08-24T19:58:07.817Z,6
2022-08-24T20:03:42.933Z,2
2022-08-24T20:09:44.999Z,0
2022-08-24T20:15:20.617Z,0
2022-08-24T20:21:17.092Z,2
2022-08-24T20:26:52.033Z,4
2022-08-24T20:32:27.457Z,0
2022-08-24T20:38:02.478Z,2
2022-08-24T20:43:59.038Z,4
2022-08-24T20:49:31.764Z,2
2022-08-24T20:55:06.683Z,2
2022-08-24T21:00:48.557Z,2
2022-08-24T21:06:25.930Z,0
2022-08-24T21:12:01.067Z,10
2022-08-24T21:17:36.044Z,4
2022-08-24T21:23:13.985Z,0
2022-08-24T21:28:49.081Z,4
2022-08-24T21:34:29.360Z,6
2022-08-24T21:40:04.822Z,0
2022-08-24T21:45:40.009Z,2
2022-08-24T21:51:14.789Z,4
2022-08-24T21:56:50.060Z,2
2022-08-24T22:02:25.752Z,8
2022-08-24T22:08:01.336Z,4
2022-08-24T22:13:36.468Z,6
2022-08-24T22:19:16.080Z,4
2022-08-24T22:24:51.213Z,4
2022-08-24T22:30:26.257Z,8
2022-08-24T22:36:01.325Z,20
2022-08-24T22:41:57.948Z,16
2022-08-24T22:47:30.746Z,28
2022-08-24T22:53:07.349Z,10
2022-08-24T22:58:43.156Z,27
2022-08-24T23:04:19.555Z,12
2022-08-24T23:09:54.484Z,30
2022-08-24T23:15:30.799Z,24
2022-08-24T23:21:06.042Z,26
2022-08-24T23:26:40.933Z,8
2022-08-24T23:32:18.934Z,32
2022-08-24T23:37:54.951Z,38
2022-08-24T23:43:51.495Z,30
2022-08-24T23:49:24.491Z,20
2022-08-24T23:55:22.895Z,30
